sensor_id;sensor_type;location;lat;lon;timestamp;P1;durP1;ratioP1;P2;durP2;ratioP2
10890;SDS011;5498;50.928;11.598;2022-10-31T00:02:11;13.57;;;7.87;;
10890;SDS011;5498;50.928;11.598;2022-10-31T00:05:13;13.20;;;6.90;;
10890;SDS011;5498;50.928;11.598;2022-10-31T00:08:15;14.83;;;6.83;;
10890;SDS011;5498;50.928;11.598;2022-10-31T00:11:18;17.10;;;6.93;;
10890;SDS011;5498;50.928;11.598;2022-10-31T00:14:20;13.43;;;6.77;;
10890;SDS011;5498;50.928;11.598;2022-10-31T00:17:23;11.07;;;6.97;;
10890;SDS011;5498;50.928;11.598;2022-10-31T00:20:26;14.17;;;7.10;;
10890;SDS011;5498;50.928;11.598;2022-10-31T00:23:29;15.00;;;7.37;;
10890;SDS011;5498;50.928;11.598;2022-10-31T00:26:32;17.80;;;6.60;;
10890;SDS011;5498;50.928;11.598;2022-10-31T00:29:34;15.77;;;7.20;;
10890;SDS011;5498;50.928;11.598;2022-10-31T00:32:37;13.60;;;7.53;;
10890;SDS011;5498;50.928;11.598;2022-10-31T00:35:39;18.47;;;6.87;;
10890;SDS011;5498;50.928;11.598;2022-10-31T00:38:41;13.97;;;6.70;;
10890;SDS011;5498;50.928;11.598;2022-10-31T00:41:44;13.13;;;5.97;;
10890;SDS011;5498;50.928;11.598;2022-10-31T00:44:46;10.50;;;6.13;;
10890;SDS011;5498;50.928;11.598;2022-10-31T00:47:50;15.73;;;6.83;;
10890;SDS011;5498;50.928;11.598;2022-10-31T00:50:52;10.17;;;6.40;;
10890;SDS011;5498;50.928;11.598;2022-10-31T00:53:54;13.17;;;6.80;;
10890;SDS011;5498;50.928;11.598;2022-10-31T00:56:56;10.47;;;6.83;;
10890;SDS011;5498;50.928;11.598;2022-10-31T00:59:58;13.30;;;6.30;;
10890;SDS011;5498;50.928;11.598;2022-10-31T01:03:01;20.20;;;6.07;;
10890;SDS011;5498;50.928;11.598;2022-10-31T01:06:04;17.47;;;6.57;;
10890;SDS011;5498;50.928;11.598;2022-10-31T01:09:09;14.57;;;6.43;;
10890;SDS011;5498;50.928;11.598;2022-10-31T01:12:11;8.10;;;6.00;;
10890;SDS011;5498;50.928;11.598;2022-10-31T01:15:14;8.10;;;5.13;;
10890;SDS011;5498;50.928;11.598;2022-10-31T01:18:20;15.13;;;6.67;;
10890;SDS011;5498;50.928;11.598;2022-10-31T01:21:23;9.53;;;6.33;;
10890;SDS011;5498;50.928;11.598;2022-10-31T01:24:27;11.37;;;6.33;;
10890;SDS011;5498;50.928;11.598;2022-10-31T01:27:29;11.00;;;6.70;;
10890;SDS011;5498;50.928;11.598;2022-10-31T01:30:32;11.27;;;6.10;;
10890;SDS011;5498;50.928;11.598;2022-10-31T01:33:36;13.80;;;6.63;;
10890;SDS011;5498;50.928;11.598;2022-10-31T01:36:38;7.60;;;5.53;;
10890;SDS011;5498;50.928;11.598;2022-10-31T01:39:41;9.90;;;5.73;;
10890;SDS011;5498;50.928;11.598;2022-10-31T01:42:43;12.67;;;5.13;;
10890;SDS011;5498;50.928;11.598;2022-10-31T01:45:46;14.73;;;5.93;;
10890;SDS011;5498;50.928;11.598;2022-10-31T01:48:54;10.40;;;6.07;;
10890;SDS011;5498;50.928;11.598;2022-10-31T01:52:00;13.73;;;6.07;;
10890;SDS011;5498;50.928;11.598;2022-10-31T01:55:06;14.60;;;5.50;;
10890;SDS011;5498;50.928;11.598;2022-10-31T01:58:13;13.60;;;5.93;;
10890;SDS011;5498;50.928;11.598;2022-10-31T02:01:20;13.53;;;5.63;;
10890;SDS011;5498;50.928;11.598;2022-10-31T02:04:24;9.67;;;5.30;;
10890;SDS011;5498;50.928;11.598;2022-10-31T02:07:27;19.00;;;5.83;;
10890;SDS011;5498;50.928;11.598;2022-10-31T02:10:36;8.93;;;5.80;;
10890;SDS011;5498;50.928;11.598;2022-10-31T02:13:38;10.87;;;5.97;;
10890;SDS011;5498;50.928;11.598;2022-10-31T02:16:41;20.67;;;6.37;;
10890;SDS011;5498;50.928;11.598;2022-10-31T02:19:46;10.93;;;5.57;;
10890;SDS011;5498;50.928;11.598;2022-10-31T02:26:45;10.50;;;5.03;;
10890;SDS011;5498;50.928;11.598;2022-10-31T02:30:11;11.40;;;6.27;;
10890;SDS011;5498;50.928;11.598;2022-10-31T02:33:20;14.57;;;5.97;;
10890;SDS011;5498;50.928;11.598;2022-10-31T02:36:27;16.17;;;6.17;;
10890;SDS011;5498;50.928;11.598;2022-10-31T02:39:37;11.97;;;5.27;;
10890;SDS011;5498;50.928;11.598;2022-10-31T02:42:49;13.07;;;5.50;;
10890;SDS011;5498;50.928;11.598;2022-10-31T02:45:58;18.57;;;5.93;;
10890;SDS011;5498;50.928;11.598;2022-10-31T02:49:10;14.00;;;5.37;;
10890;SDS011;5498;50.928;11.598;2022-10-31T02:52:20;9.83;;;5.73;;
10890;SDS011;5498;50.928;11.598;2022-10-31T02:58:53;12.70;;;6.37;;
10890;SDS011;5498;50.928;11.598;2022-10-31T03:02:06;10.70;;;6.20;;
10890;SDS011;5498;50.928;11.598;2022-10-31T03:05:25;9.50;;;5.53;;
10890;SDS011;5498;50.928;11.598;2022-10-31T03:08:39;21.57;;;6.50;;
10890;SDS011;5498;50.928;11.598;2022-10-31T03:11:50;11.03;;;6.07;;
10890;SDS011;5498;50.928;11.598;2022-10-31T03:15:01;14.87;;;6.40;;
10890;SDS011;5498;50.928;11.598;2022-10-31T03:18:15;7.93;;;5.23;;
10890;SDS011;5498;50.928;11.598;2022-10-31T03:21:25;11.03;;;5.87;;
10890;SDS011;5498;50.928;11.598;2022-10-31T03:24:34;21.53;;;5.77;;
10890;SDS011;5498;50.928;11.598;2022-10-31T03:27:39;11.80;;;5.70;;
10890;SDS011;5498;50.928;11.598;2022-10-31T03:30:45;10.03;;;5.00;;
10890;SDS011;5498;50.928;11.598;2022-10-31T03:33:50;10.33;;;5.10;;
10890;SDS011;5498;50.928;11.598;2022-10-31T03:36:55;15.77;;;5.23;;
10890;SDS011;5498;50.928;11.598;2022-10-31T03:40:02;14.17;;;6.30;;
10890;SDS011;5498;50.928;11.598;2022-10-31T03:43:10;10.90;;;5.60;;
10890;SDS011;5498;50.928;11.598;2022-10-31T03:46:16;10.97;;;6.17;;
10890;SDS011;5498;50.928;11.598;2022-10-31T03:49:19;10.10;;;5.40;;
10890;SDS011;5498;50.928;11.598;2022-10-31T03:52:24;8.87;;;5.77;;
10890;SDS011;5498;50.928;11.598;2022-10-31T03:55:33;8.60;;;5.17;;
10890;SDS011;5498;50.928;11.598;2022-10-31T03:58:42;11.60;;;5.20;;
10890;SDS011;5498;50.928;11.598;2022-10-31T04:01:50;6.70;;;5.20;;
10890;SDS011;5498;50.928;11.598;2022-10-31T04:05:00;9.90;;;5.23;;
10890;SDS011;5498;50.928;11.598;2022-10-31T04:08:04;8.83;;;5.27;;
10890;SDS011;5498;50.928;11.598;2022-10-31T04:11:11;8.53;;;5.00;;
10890;SDS011;5498;50.928;11.598;2022-10-31T04:14:15;6.93;;;4.77;;
10890;SDS011;5498;50.928;11.598;2022-10-31T04:17:18;11.37;;;5.47;;
10890;SDS011;5498;50.928;11.598;2022-10-31T04:20:30;9.33;;;4.93;;
10890;SDS011;5498;50.928;11.598;2022-10-31T04:23:35;9.03;;;5.30;;
10890;SDS011;5498;50.928;11.598;2022-10-31T04:26:37;6.77;;;4.63;;
10890;SDS011;5498;50.928;11.598;2022-10-31T04:29:39;7.97;;;4.87;;
10890;SDS011;5498;50.928;11.598;2022-10-31T04:32:41;12.40;;;6.30;;
10890;SDS011;5498;50.928;11.598;2022-10-31T04:35:43;9.60;;;5.07;;
10890;SDS011;5498;50.928;11.598;2022-10-31T04:38:47;9.33;;;5.27;;
10890;SDS011;5498;50.928;11.598;2022-10-31T04:41:49;12.83;;;5.03;;
10890;SDS011;5498;50.928;11.598;2022-10-31T04:44:51;6.23;;;4.57;;
10890;SDS011;5498;50.928;11.598;2022-10-31T04:47:53;9.20;;;5.63;;
10890;SDS011;5498;50.928;11.598;2022-10-31T04:50:58;12.30;;;5.03;;
10890;SDS011;5498;50.928;11.598;2022-10-31T04:54:02;9.70;;;4.60;;
10890;SDS011;5498;50.928;11.598;2022-10-31T04:57:04;8.50;;;4.40;;
10890;SDS011;5498;50.928;11.598;2022-10-31T05:00:07;14.33;;;5.27;;
10890;SDS011;5498;50.928;11.598;2022-10-31T05:03:10;16.77;;;5.27;;
10890;SDS011;5498;50.928;11.598;2022-10-31T05:06:12;9.37;;;5.17;;
10890;SDS011;5498;50.928;11.598;2022-10-31T05:09:17;8.37;;;4.90;;
10890;SDS011;5498;50.928;11.598;2022-10-31T05:12:19;16.17;;;5.33;;
10890;SDS011;5498;50.928;11.598;2022-10-31T05:15:22;9.60;;;4.93;;
10890;SDS011;5498;50.928;11.598;2022-10-31T05:18:26;9.87;;;5.07;;
10890;SDS011;5498;50.928;11.598;2022-10-31T05:21:28;13.33;;;5.83;;
10890;SDS011;5498;50.928;11.598;2022-10-31T05:24:31;10.00;;;5.13;;
10890;SDS011;5498;50.928;11.598;2022-10-31T05:27:33;8.73;;;4.53;;
10890;SDS011;5498;50.928;11.598;2022-10-31T05:30:35;11.23;;;4.63;;
10890;SDS011;5498;50.928;11.598;2022-10-31T05:33:37;8.73;;;4.77;;
10890;SDS011;5498;50.928;11.598;2022-10-31T05:36:39;9.30;;;5.23;;
10890;SDS011;5498;50.928;11.598;2022-10-31T05:39:46;6.40;;;4.33;;
10890;SDS011;5498;50.928;11.598;2022-10-31T05:42:50;11.30;;;5.73;;
10890;SDS011;5498;50.928;11.598;2022-10-31T05:45:53;17.27;;;5.30;;
10890;SDS011;5498;50.928;11.598;2022-10-31T05:48:55;10.77;;;5.03;;
10890;SDS011;5498;50.928;11.598;2022-10-31T05:51:57;7.87;;;4.60;;
10890;SDS011;5498;50.928;11.598;2022-10-31T05:55:01;10.97;;;5.20;;
10890;SDS011;5498;50.928;11.598;2022-10-31T05:58:03;8.53;;;5.00;;
10890;SDS011;5498;50.928;11.598;2022-10-31T06:01:05;14.33;;;4.97;;
10890;SDS011;5498;50.928;11.598;2022-10-31T06:04:07;13.63;;;5.33;;
10890;SDS011;5498;50.928;11.598;2022-10-31T06:07:09;8.73;;;4.83;;
10890;SDS011;5498;50.928;11.598;2022-10-31T06:10:13;14.33;;;6.03;;
10890;SDS011;5498;50.928;11.598;2022-10-31T06:13:15;8.60;;;4.30;;
10890;SDS011;5498;50.928;11.598;2022-10-31T06:16:17;11.40;;;5.63;;
10890;SDS011;5498;50.928;11.598;2022-10-31T06:19:20;13.03;;;4.87;;
10890;SDS011;5498;50.928;11.598;2022-10-31T06:22:23;6.50;;;4.87;;
10890;SDS011;5498;50.928;11.598;2022-10-31T06:25:26;12.93;;;5.33;;
10890;SDS011;5498;50.928;11.598;2022-10-31T06:28:28;14.87;;;5.37;;
10890;SDS011;5498;50.928;11.598;2022-10-31T06:31:30;7.23;;;5.40;;
10890;SDS011;5498;50.928;11.598;2022-10-31T06:34:32;8.70;;;4.80;;
10890;SDS011;5498;50.928;11.598;2022-10-31T06:37:34;12.27;;;5.20;;
10890;SDS011;5498;50.928;11.598;2022-10-31T06:40:38;14.23;;;5.20;;
10890;SDS011;5498;50.928;11.598;2022-10-31T06:43:40;8.40;;;5.07;;
10890;SDS011;5498;50.928;11.598;2022-10-31T06:46:42;12.37;;;6.20;;
10890;SDS011;5498;50.928;11.598;2022-10-31T06:49:43;10.67;;;5.73;;
10890;SDS011;5498;50.928;11.598;2022-10-31T06:52:49;12.40;;;7.57;;
10890;SDS011;5498;50.928;11.598;2022-10-31T06:55:53;14.13;;;8.07;;
10890;SDS011;5498;50.928;11.598;2022-10-31T06:58:56;13.53;;;7.30;;
10890;SDS011;5498;50.928;11.598;2022-10-31T07:01:58;23.20;;;9.67;;
10890;SDS011;5498;50.928;11.598;2022-10-31T07:05:01;32.73;;;11.77;;
10890;SDS011;5498;50.928;11.598;2022-10-31T07:08:05;21.17;;;8.13;;
10890;SDS011;5498;50.928;11.598;2022-10-31T07:11:11;32.33;;;10.60;;
10890;SDS011;5498;50.928;11.598;2022-10-31T07:14:13;27.70;;;9.67;;
10890;SDS011;5498;50.928;11.598;2022-10-31T07:17:15;14.83;;;5.40;;
10890;SDS011;5498;50.928;11.598;2022-10-31T07:20:17;10.03;;;4.60;;
10890;SDS011;5498;50.928;11.598;2022-10-31T07:23:19;8.37;;;5.27;;
10890;SDS011;5498;50.928;11.598;2022-10-31T07:26:24;5.57;;;4.67;;
10890;SDS011;5498;50.928;11.598;2022-10-31T07:29:27;9.73;;;5.37;;
10890;SDS011;5498;50.928;11.598;2022-10-31T07:32:36;11.10;;;4.80;;
10890;SDS011;5498;50.928;11.598;2022-10-31T07:35:40;11.07;;;4.50;;
10890;SDS011;5498;50.928;11.598;2022-10-31T07:38:42;13.00;;;5.87;;
10890;SDS011;5498;50.928;11.598;2022-10-31T07:41:45;34.83;;;10.37;;
10890;SDS011;5498;50.928;11.598;2022-10-31T07:44:47;20.63;;;8.40;;
10890;SDS011;5498;50.928;11.598;2022-10-31T07:47:49;20.70;;;7.17;;
10890;SDS011;5498;50.928;11.598;2022-10-31T07:50:53;26.03;;;8.70;;
10890;SDS011;5498;50.928;11.598;2022-10-31T07:53:56;28.00;;;8.83;;
10890;SDS011;5498;50.928;11.598;2022-10-31T07:56:59;25.70;;;9.40;;
10890;SDS011;5498;50.928;11.598;2022-10-31T08:00:02;25.60;;;9.07;;
10890;SDS011;5498;50.928;11.598;2022-10-31T08:03:05;12.90;;;6.93;;
10890;SDS011;5498;50.928;11.598;2022-10-31T08:06:08;7.93;;;5.10;;
10890;SDS011;5498;50.928;11.598;2022-10-31T08:09:10;14.63;;;4.67;;
10890;SDS011;5498;50.928;11.598;2022-10-31T08:12:14;13.63;;;4.47;;
10890;SDS011;5498;50.928;11.598;2022-10-31T08:15:16;14.47;;;4.20;;
10890;SDS011;5498;50.928;11.598;2022-10-31T08:18:18;7.70;;;4.20;;
10890;SDS011;5498;50.928;11.598;2022-10-31T08:21:22;9.70;;;4.17;;
10890;SDS011;5498;50.928;11.598;2022-10-31T08:24:24;8.90;;;4.57;;
10890;SDS011;5498;50.928;11.598;2022-10-31T08:27:27;10.17;;;4.20;;
10890;SDS011;5498;50.928;11.598;2022-10-31T08:30:30;8.87;;;4.07;;
10890;SDS011;5498;50.928;11.598;2022-10-31T08:33:34;9.60;;;5.03;;
10890;SDS011;5498;50.928;11.598;2022-10-31T08:36:36;8.53;;;4.57;;
10890;SDS011;5498;50.928;11.598;2022-10-31T08:39:40;10.20;;;4.53;;
10890;SDS011;5498;50.928;11.598;2022-10-31T08:42:43;6.43;;;3.83;;
10890;SDS011;5498;50.928;11.598;2022-10-31T08:45:47;9.20;;;3.73;;
10890;SDS011;5498;50.928;11.598;2022-10-31T08:48:50;11.43;;;5.13;;
10890;SDS011;5498;50.928;11.598;2022-10-31T08:51:52;6.20;;;4.43;;
10890;SDS011;5498;50.928;11.598;2022-10-31T08:54:54;11.20;;;4.80;;
10890;SDS011;5498;50.928;11.598;2022-10-31T08:57:58;11.07;;;5.20;;
10890;SDS011;5498;50.928;11.598;2022-10-31T09:01:00;14.40;;;4.93;;
10890;SDS011;5498;50.928;11.598;2022-10-31T09:04:02;7.67;;;4.40;;
10890;SDS011;5498;50.928;11.598;2022-10-31T09:07:04;8.63;;;4.70;;
10890;SDS011;5498;50.928;11.598;2022-10-31T09:10:07;23.10;;;7.60;;
10890;SDS011;5498;50.928;11.598;2022-10-31T09:13:11;14.97;;;5.77;;
10890;SDS011;5498;50.928;11.598;2022-10-31T09:16:15;6.87;;;4.50;;
10890;SDS011;5498;50.928;11.598;2022-10-31T09:19:17;8.50;;;4.37;;
10890;SDS011;5498;50.928;11.598;2022-10-31T09:22:19;11.27;;;5.10;;
10890;SDS011;5498;50.928;11.598;2022-10-31T09:25:21;12.63;;;4.83;;
10890;SDS011;5498;50.928;11.598;2022-10-31T09:28:24;11.77;;;4.00;;
10890;SDS011;5498;50.928;11.598;2022-10-31T09:31:26;8.80;;;4.33;;
10890;SDS011;5498;50.928;11.598;2022-10-31T09:34:28;9.07;;;4.77;;
10890;SDS011;5498;50.928;11.598;2022-10-31T09:37:30;14.13;;;4.50;;
10890;SDS011;5498;50.928;11.598;2022-10-31T09:40:34;11.20;;;5.03;;
10890;SDS011;5498;50.928;11.598;2022-10-31T09:43:42;11.50;;;4.67;;
10890;SDS011;5498;50.928;11.598;2022-10-31T09:46:52;17.53;;;4.80;;
10890;SDS011;5498;50.928;11.598;2022-10-31T09:50:13;11.67;;;4.40;;
10890;SDS011;5498;50.928;11.598;2022-10-31T09:53:22;7.37;;;4.20;;
10890;SDS011;5498;50.928;11.598;2022-10-31T09:56:31;12.70;;;4.30;;
10890;SDS011;5498;50.928;11.598;2022-10-31T09:59:38;10.90;;;4.77;;
10890;SDS011;5498;50.928;11.598;2022-10-31T10:02:43;12.43;;;4.10;;
10890;SDS011;5498;50.928;11.598;2022-10-31T10:05:51;12.27;;;4.37;;
10890;SDS011;5498;50.928;11.598;2022-10-31T10:08:58;8.07;;;4.63;;
10890;SDS011;5498;50.928;11.598;2022-10-31T10:12:03;14.27;;;5.30;;
10890;SDS011;5498;50.928;11.598;2022-10-31T10:15:27;8.60;;;4.57;;
10890;SDS011;5498;50.928;11.598;2022-10-31T10:18:57;12.53;;;5.30;;
10890;SDS011;5498;50.928;11.598;2022-10-31T10:22:18;11.73;;;3.93;;
10890;SDS011;5498;50.928;11.598;2022-10-31T10:25:31;5.83;;;4.30;;
10890;SDS011;5498;50.928;11.598;2022-10-31T10:28:41;8.80;;;5.67;;
10890;SDS011;5498;50.928;11.598;2022-10-31T10:31:49;9.73;;;8.73;;
10890;SDS011;5498;50.928;11.598;2022-10-31T10:34:54;124.03;;;117.17;;
10890;SDS011;5498;50.928;11.598;2022-10-31T10:38:04;22.70;;;20.90;;
10890;SDS011;5498;50.928;11.598;2022-10-31T10:41:18;83.13;;;78.37;;
10890;SDS011;5498;50.928;11.598;2022-10-31T10:44:22;29.27;;;27.10;;
10890;SDS011;5498;50.928;11.598;2022-10-31T10:47:40;386.60;;;362.13;;
10890;SDS011;5498;50.928;11.598;2022-10-31T10:50:47;247.73;;;233.37;;
10890;SDS011;5498;50.928;11.598;2022-10-31T10:53:58;246.23;;;232.17;;
10890;SDS011;5498;50.928;11.598;2022-10-31T10:57:20;267.97;;;252.60;;
10890;SDS011;5498;50.928;11.598;2022-10-31T11:00:31;350.93;;;329.23;;
10890;SDS011;5498;50.928;11.598;2022-10-31T11:03:38;368.60;;;345.40;;
10890;SDS011;5498;50.928;11.598;2022-10-31T11:06:41;449.67;;;418.90;;
10890;SDS011;5498;50.928;11.598;2022-10-31T11:09:43;526.90;;;488.05;;
10890;SDS011;5498;50.928;11.598;2022-10-31T11:12:56;550.33;;;508.08;;
10890;SDS011;5498;50.928;11.598;2022-10-31T11:16:04;562.15;;;519.33;;
10890;SDS011;5498;50.928;11.598;2022-10-31T11:19:16;510.70;;;473.42;;
10890;SDS011;5498;50.928;11.598;2022-10-31T11:22:20;331.52;;;311.27;;
10890;SDS011;5498;50.928;11.598;2022-10-31T11:25:24;387.67;;;362.83;;
10890;SDS011;5498;50.928;11.598;2022-10-31T11:28:28;364.17;;;341.63;;
10890;SDS011;5498;50.928;11.598;2022-10-31T11:31:32;336.98;;;316.27;;
10890;SDS011;5498;50.928;11.598;2022-10-31T11:34:37;288.10;;;270.98;;
10890;SDS011;5498;50.928;11.598;2022-10-31T11:37:46;253.65;;;238.98;;
10890;SDS011;5498;50.928;11.598;2022-10-31T11:40:51;237.13;;;223.57;;
10890;SDS011;5498;50.928;11.598;2022-10-31T11:43:59;222.05;;;208.93;;
10890;SDS011;5498;50.928;11.598;2022-10-31T11:47:04;191.93;;;180.95;;
10890;SDS011;5498;50.928;11.598;2022-10-31T11:50:10;195.52;;;184.20;;
10890;SDS011;5498;50.928;11.598;2022-10-31T11:53:25;192.48;;;180.50;;
10890;SDS011;5498;50.928;11.598;2022-10-31T11:56:39;170.45;;;160.73;;
10890;SDS011;5498;50.928;11.598;2022-10-31T11:59:50;138.95;;;130.93;;
10890;SDS011;5498;50.928;11.598;2022-10-31T12:03:03;148.05;;;139.10;;
10890;SDS011;5498;50.928;11.598;2022-10-31T12:06:16;105.65;;;99.22;;
10890;SDS011;5498;50.928;11.598;2022-10-31T12:09:23;93.90;;;87.85;;
10890;SDS011;5498;50.928;11.598;2022-10-31T12:16:20;85.07;;;79.85;;
10890;SDS011;5498;50.928;11.598;2022-10-31T12:19:32;91.45;;;85.43;;
10890;SDS011;5498;50.928;11.598;2022-10-31T12:22:47;58.20;;;53.83;;
10890;SDS011;5498;50.928;11.598;2022-10-31T12:26:05;43.47;;;40.35;;
10890;SDS011;5498;50.928;11.598;2022-10-31T12:29:20;46.67;;;42.45;;
10890;SDS011;5498;50.928;11.598;2022-10-31T12:32:43;32.42;;;29.95;;
10890;SDS011;5498;50.928;11.598;2022-10-31T12:36:30;25.98;;;23.65;;
10890;SDS011;5498;50.928;11.598;2022-10-31T12:39:44;26.52;;;22.60;;
10890;SDS011;5498;50.928;11.598;2022-10-31T12:43:00;23.85;;;21.60;;
10890;SDS011;5498;50.928;11.598;2022-10-31T12:46:21;12.43;;;6.47;;
10890;SDS011;5498;50.928;11.598;2022-10-31T12:49:38;17.85;;;5.95;;
10890;SDS011;5498;50.928;11.598;2022-10-31T12:52:51;13.13;;;5.95;;
10890;SDS011;5498;50.928;11.598;2022-10-31T12:56:09;18.80;;;6.45;;
10890;SDS011;5498;50.928;11.598;2022-10-31T12:59:27;11.00;;;5.68;;
10890;SDS011;5498;50.928;11.598;2022-10-31T13:02:35;16.67;;;6.57;;
10890;SDS011;5498;50.928;11.598;2022-10-31T13:05:45;16.90;;;5.85;;
10890;SDS011;5498;50.928;11.598;2022-10-31T13:08:53;14.32;;;7.15;;
10890;SDS011;5498;50.928;11.598;2022-10-31T13:12:02;14.32;;;6.00;;
10890;SDS011;5498;50.928;11.598;2022-10-31T13:15:14;9.75;;;5.88;;
10890;SDS011;5498;50.928;11.598;2022-10-31T13:18:23;21.80;;;6.18;;
10890;SDS011;5498;50.928;11.598;2022-10-31T13:21:30;12.63;;;6.55;;
10890;SDS011;5498;50.928;11.598;2022-10-31T13:24:41;22.02;;;6.20;;
10890;SDS011;5498;50.928;11.598;2022-10-31T13:27:53;9.60;;;5.53;;
10890;SDS011;5498;50.928;11.598;2022-10-31T13:30:59;15.88;;;6.28;;
10890;SDS011;5498;50.928;11.598;2022-10-31T13:34:03;16.88;;;5.68;;
10890;SDS011;5498;50.928;11.598;2022-10-31T13:37:15;18.17;;;6.30;;
10890;SDS011;5498;50.928;11.598;2022-10-31T13:40:29;15.70;;;4.93;;
10890;SDS011;5498;50.928;11.598;2022-10-31T13:43:46;15.60;;;6.10;;
10890;SDS011;5498;50.928;11.598;2022-10-31T13:47:01;10.70;;;6.20;;
10890;SDS011;5498;50.928;11.598;2022-10-31T13:50:04;12.48;;;5.28;;
10890;SDS011;5498;50.928;11.598;2022-10-31T13:53:21;12.43;;;5.32;;
10890;SDS011;5498;50.928;11.598;2022-10-31T13:56:36;17.00;;;5.73;;
10890;SDS011;5498;50.928;11.598;2022-10-31T13:59:45;12.80;;;6.30;;
10890;SDS011;5498;50.928;11.598;2022-10-31T14:02:51;10.85;;;6.05;;
10890;SDS011;5498;50.928;11.598;2022-10-31T14:05:55;17.23;;;8.17;;
10890;SDS011;5498;50.928;11.598;2022-10-31T14:08:58;13.25;;;6.78;;
10890;SDS011;5498;50.928;11.598;2022-10-31T14:12:01;10.60;;;6.70;;
10890;SDS011;5498;50.928;11.598;2022-10-31T14:15:14;13.02;;;6.50;;
10890;SDS011;5498;50.928;11.598;2022-10-31T14:18:21;13.50;;;6.80;;
10890;SDS011;5498;50.928;11.598;2022-10-31T14:21:26;11.57;;;6.00;;
10890;SDS011;5498;50.928;11.598;2022-10-31T14:24:34;13.30;;;6.18;;
10890;SDS011;5498;50.928;11.598;2022-10-31T14:27:44;13.13;;;5.95;;
10890;SDS011;5498;50.928;11.598;2022-10-31T14:30:53;10.00;;;5.65;;
10890;SDS011;5498;50.928;11.598;2022-10-31T14:33:57;9.07;;;5.83;;
10890;SDS011;5498;50.928;11.598;2022-10-31T14:40:42;14.38;;;5.45;;
10890;SDS011;5498;50.928;11.598;2022-10-31T14:44:13;21.25;;;6.95;;
10890;SDS011;5498;50.928;11.598;2022-10-31T14:47:55;13.27;;;6.40;;
10890;SDS011;5498;50.928;11.598;2022-10-31T14:51:09;14.40;;;5.95;;
10890;SDS011;5498;50.928;11.598;2022-10-31T14:54:15;15.25;;;6.28;;
10890;SDS011;5498;50.928;11.598;2022-10-31T14:57:27;13.02;;;5.55;;
10890;SDS011;5498;50.928;11.598;2022-10-31T15:00:32;19.73;;;6.47;;
10890;SDS011;5498;50.928;11.598;2022-10-31T15:03:42;10.87;;;6.70;;
10890;SDS011;5498;50.928;11.598;2022-10-31T15:06:48;10.73;;;5.93;;
10890;SDS011;5498;50.928;11.598;2022-10-31T15:09:55;13.20;;;6.40;;
10890;SDS011;5498;50.928;11.598;2022-10-31T15:13:08;11.10;;;6.23;;
10890;SDS011;5498;50.928;11.598;2022-10-31T15:16:11;11.07;;;6.00;;
10890;SDS011;5498;50.928;11.598;2022-10-31T15:19:19;24.90;;;10.63;;
10890;SDS011;5498;50.928;11.598;2022-10-31T15:22:24;24.07;;;12.37;;
10890;SDS011;5498;50.928;11.598;2022-10-31T15:25:33;34.57;;;14.57;;
10890;SDS011;5498;50.928;11.598;2022-10-31T15:28:36;39.20;;;15.13;;
10890;SDS011;5498;50.928;11.598;2022-10-31T15:31:38;38.10;;;14.70;;
10890;SDS011;5498;50.928;11.598;2022-10-31T15:34:42;24.67;;;11.30;;
10890;SDS011;5498;50.928;11.598;2022-10-31T15:37:45;20.57;;;10.50;;
10890;SDS011;5498;50.928;11.598;2022-10-31T15:40:51;15.20;;;6.77;;
10890;SDS011;5498;50.928;11.598;2022-10-31T15:44:02;12.07;;;6.33;;
10890;SDS011;5498;50.928;11.598;2022-10-31T15:47:13;18.27;;;6.60;;
10890;SDS011;5498;50.928;11.598;2022-10-31T15:50:20;20.20;;;6.47;;
10890;SDS011;5498;50.928;11.598;2022-10-31T15:53:32;13.30;;;6.77;;
10890;SDS011;5498;50.928;11.598;2022-10-31T15:56:39;12.97;;;6.47;;
10890;SDS011;5498;50.928;11.598;2022-10-31T15:59:45;16.10;;;5.87;;
10890;SDS011;5498;50.928;11.598;2022-10-31T16:02:50;13.17;;;5.43;;
10890;SDS011;5498;50.928;11.598;2022-10-31T16:06:05;16.23;;;6.43;;
10890;SDS011;5498;50.928;11.598;2022-10-31T16:09:18;12.67;;;5.87;;
10890;SDS011;5498;50.928;11.598;2022-10-31T16:12:24;10.33;;;5.50;;
10890;SDS011;5498;50.928;11.598;2022-10-31T16:15:31;13.87;;;7.00;;
10890;SDS011;5498;50.928;11.598;2022-10-31T16:18:36;13.93;;;6.70;;
10890;SDS011;5498;50.928;11.598;2022-10-31T16:21:42;18.83;;;8.00;;
10890;SDS011;5498;50.928;11.598;2022-10-31T16:24:45;15.33;;;6.97;;
10890;SDS011;5498;50.928;11.598;2022-10-31T16:27:51;20.07;;;7.80;;
10890;SDS011;5498;50.928;11.598;2022-10-31T16:30:56;21.57;;;8.80;;
10890;SDS011;5498;50.928;11.598;2022-10-31T16:37:23;15.47;;;7.80;;
10890;SDS011;5498;50.928;11.598;2022-10-31T16:40:25;20.23;;;8.03;;
10890;SDS011;5498;50.928;11.598;2022-10-31T16:43:27;13.67;;;7.50;;
10890;SDS011;5498;50.928;11.598;2022-10-31T16:46:29;25.87;;;7.70;;
10890;SDS011;5498;50.928;11.598;2022-10-31T16:49:31;10.83;;;7.53;;
10890;SDS011;5498;50.928;11.598;2022-10-31T16:52:35;21.03;;;8.27;;
10890;SDS011;5498;50.928;11.598;2022-10-31T16:55:40;14.93;;;8.13;;
10890;SDS011;5498;50.928;11.598;2022-10-31T16:58:46;17.83;;;8.37;;
10890;SDS011;5498;50.928;11.598;2022-10-31T17:01:48;13.73;;;8.53;;
10890;SDS011;5498;50.928;11.598;2022-10-31T17:04:50;19.47;;;9.50;;
10890;SDS011;5498;50.928;11.598;2022-10-31T17:07:54;14.60;;;8.47;;
10890;SDS011;5498;50.928;11.598;2022-10-31T17:10:56;20.77;;;10.20;;
10890;SDS011;5498;50.928;11.598;2022-10-31T17:14:00;16.03;;;10.40;;
10890;SDS011;5498;50.928;11.598;2022-10-31T17:17:02;31.80;;;15.33;;
10890;SDS011;5498;50.928;11.598;2022-10-31T17:20:08;40.07;;;17.53;;
10890;SDS011;5498;50.928;11.598;2022-10-31T17:23:21;36.37;;;17.93;;
10890;SDS011;5498;50.928;11.598;2022-10-31T17:26:23;30.07;;;14.63;;
10890;SDS011;5498;50.928;11.598;2022-10-31T17:29:25;26.53;;;12.07;;
10890;SDS011;5498;50.928;11.598;2022-10-31T17:32:27;23.40;;;12.67;;
10890;SDS011;5498;50.928;11.598;2022-10-31T17:35:30;27.00;;;14.10;;
10890;SDS011;5498;50.928;11.598;2022-10-31T17:38:33;21.77;;;11.30;;
10890;SDS011;5498;50.928;11.598;2022-10-31T17:41:37;23.33;;;11.37;;
10890;SDS011;5498;50.928;11.598;2022-10-31T17:44:39;21.27;;;10.47;;
10890;SDS011;5498;50.928;11.598;2022-10-31T17:47:41;24.07;;;10.67;;
10890;SDS011;5498;50.928;11.598;2022-10-31T17:50:43;20.33;;;9.63;;
10890;SDS011;5498;50.928;11.598;2022-10-31T17:53:46;18.17;;;11.37;;
10890;SDS011;5498;50.928;11.598;2022-10-31T17:56:49;22.80;;;10.90;;
10890;SDS011;5498;50.928;11.598;2022-10-31T17:59:50;19.67;;;12.57;;
10890;SDS011;5498;50.928;11.598;2022-10-31T18:02:55;25.27;;;15.27;;
10890;SDS011;5498;50.928;11.598;2022-10-31T18:05:57;31.13;;;14.07;;
10890;SDS011;5498;50.928;11.598;2022-10-31T18:09:02;20.50;;;11.70;;
10890;SDS011;5498;50.928;11.598;2022-10-31T18:12:06;22.87;;;12.33;;
10890;SDS011;5498;50.928;11.598;2022-10-31T18:15:08;27.30;;;12.93;;
10890;SDS011;5498;50.928;11.598;2022-10-31T18:18:10;20.00;;;12.40;;
10890;SDS011;5498;50.928;11.598;2022-10-31T18:21:12;20.87;;;12.27;;
10890;SDS011;5498;50.928;11.598;2022-10-31T18:24:16;21.73;;;11.00;;
10890;SDS011;5498;50.928;11.598;2022-10-31T18:27:18;19.37;;;11.73;;
10890;SDS011;5498;50.928;11.598;2022-10-31T18:30:20;24.17;;;12.57;;
10890;SDS011;5498;50.928;11.598;2022-10-31T18:33:22;21.67;;;11.77;;
10890;SDS011;5498;50.928;11.598;2022-10-31T18:36:24;19.30;;;10.27;;
10890;SDS011;5498;50.928;11.598;2022-10-31T18:39:27;19.80;;;11.47;;
10890;SDS011;5498;50.928;11.598;2022-10-31T18:42:29;28.07;;;12.47;;